Terminal Aerodrome Forecast
Issued by NWS

Home | Current Version | Previous Version | Graphics & Text | Print | Product List | Glossary On
Versions: 1 2 3 4 5 6 7 8 9 10 11 12 13 14 15 16 17 18
546
FTUS43 KTOP 281016 AAA
TAFMHK
TAF AMD
KMHK 281016Z 2810/2906 21012G22KT P6SM VCSH BKN070 WS020/20048KT
     FM281300 20015G24KT P6SM SCT100
     FM290100 18012KT P6SM BKN070=

USA.gov is the U.S. government's official web portal to all federal, state and local government web resources and services.